Time;durP1;ratioP1;P1;durP2;ratioP2;P2;SDS_P1;SDS_P2;PMS_P1;PMS_P2;Temp;Humidity;BMP_temperature;BMP_pressure;BME280_temperature;BME280_humidity;BME280_pressure;Samples;Min_cycle;Max_cycle;Signal;HPM_P1;HPM_P2
2020/12/15 00:00:59;;;;;;;67.27;38.50;;;;;;;1.07;76.83;99210.20;2260463;78;21136;-78
2020/12/15 00:04:00;;;;;;;75.07;39.80;;;;;;;1.02;76.94;99214.61;2260422;78;21129;-78
2020/12/15 00:07:01;;;;;;;59.50;34.53;;;;;;;0.99;77.07;99211.87;2260387;78;21121;-78
2020/12/15 00:10:02;;;;;;;69.30;36.93;;;;;;;0.96;77.02;99208.73;2260669;78;21244;-78
2020/12/15 00:13:04;;;;;;;66.77;35.27;;;;;;;0.96;77.20;99201.02;2260657;78;21164;-79
2020/12/15 00:16:05;;;;;;;62.20;30.77;;;;;;;0.97;77.31;99196.77;2260968;78;21090;-79
2020/12/15 00:19:06;;;;;;;59.23;32.83;;;;;;;0.90;77.54;99198.11;2260974;78;21204;-79
2020/12/15 00:22:07;;;;;;;59.47;31.83;;;;;;;0.80;77.43;99194.52;2260846;79;21433;-77
2020/12/15 00:25:08;;;;;;;67.10;34.03;;;;;;;0.75;77.57;99202.37;2261078;78;21145;-78
2020/12/15 00:28:09;;;;;;;60.87;32.73;;;;;;;0.63;77.84;99200.88;2260623;78;21145;-78
2020/12/15 00:31:10;;;;;;;64.57;32.30;;;;;;;0.61;78.06;99202.88;2260789;78;21137;-79
2020/12/15 00:34:12;;;;;;;53.90;27.53;;;;;;;0.61;78.12;99201.20;2260870;78;21411;-79
2020/12/15 00:37:13;;;;;;;67.53;34.40;;;;;;;0.59;78.15;99192.52;2260922;78;21134;-78
2020/12/15 00:40:14;;;;;;;58.30;28.77;;;;;;;0.58;78.16;99195.89;2260689;78;21125;-78
2020/12/15 00:43:15;;;;;;;58.17;31.70;;;;;;;0.60;78.28;99197.25;2260258;78;21121;-78
2020/12/15 00:46:16;;;;;;;69.73;36.97;;;;;;;0.64;78.29;99204.34;2260382;78;21117;-79
2020/12/15 00:49:17;;;;;;;59.17;31.70;;;;;;;0.66;78.28;99199.28;2260449;78;21125;-77
2020/12/15 00:52:18;;;;;;;63.67;32.57;;;;;;;0.69;78.27;99199.05;2259791;78;21191;-78
2020/12/15 00:55:19;;;;;;;76.07;36.97;;;;;;;0.75;78.19;99197.23;2260621;78;21101;-80
2020/12/15 00:58:20;;;;;;;70.27;35.93;;;;;;;0.80;78.12;99199.25;2260614;78;21109;-79
2020/12/15 01:01:21;;;;;;;64.23;29.97;;;;;;;0.82;78.04;99213.47;2260803;78;21141;-80
2020/12/15 01:04:22;;;;;;;58.60;30.27;;;;;;;0.77;77.96;99213.22;2260744;78;21098;-78
2020/12/15 01:07:23;;;;;;;53.57;27.97;;;;;;;0.67;78.12;99210.05;2259808;78;21144;-79
2020/12/15 01:10:24;;;;;;;56.27;31.20;;;;;;;0.63;78.29;99202.17;2260842;78;21168;-79
2020/12/15 01:13:26;;;;;;;64.93;32.57;;;;;;;0.63;78.21;99202.56;2262301;78;21387;-79
2020/12/15 01:16:27;;;;;;;65.00;31.73;;;;;;;0.66;78.23;99189.89;2264750;78;21176;-79
2020/12/15 01:19:29;;;;;;;72.17;33.47;;;;;;;0.71;78.37;99182.44;2265698;79;21178;-80
2020/12/15 01:22:30;;;;;;;63.20;31.90;;;;;;;0.67;78.18;99185.64;2264848;78;21383;-79
2020/12/15 01:25:32;;;;;;;68.77;30.77;;;;;;;0.67;78.33;99186.52;2265044;78;21152;-80
2020/12/15 01:28:33;;;;;;;55.27;29.23;;;;;;;0.69;78.35;99173.77;2265096;78;21093;-79
2020/12/15 01:31:34;;;;;;;65.23;30.80;;;;;;;0.66;78.17;99177.05;2264855;78;21242;-79
2020/12/15 01:34:35;;;;;;;72.60;30.53;;;;;;;0.66;78.27;99180.90;2264842;79;21141;-78
2020/12/15 01:37:38;;;;;;;65.07;30.53;;;;;;;0.66;78.27;99180.02;2264993;78;21546;-79
2020/12/15 01:40:39;;;;;;;68.03;32.20;;;;;;;0.66;78.31;99191.17;2265028;78;21371;-80
2020/12/15 01:43:40;;;;;;;61.30;30.30;;;;;;;0.66;78.30;99190.30;2264966;78;21129;-79
2020/12/15 01:46:41;;;;;;;56.30;28.87;;;;;;;0.68;78.35;99196.00;2264979;78;21117;-79
2020/12/15 01:49:42;;;;;;;52.50;27.27;;;;;;;0.71;78.28;99186.30;2264766;78;21093;-80
2020/12/15 01:52:43;;;;;;;67.17;26.83;;;;;;;0.70;78.12;99194.41;2264829;78;21169;-79
2020/12/15 01:55:44;;;;;;;78.77;28.13;;;;;;;0.64;78.06;99189.81;2264758;78;21089;-79
2020/12/15 01:58:45;;;;;;;56.00;27.93;;;;;;;0.62;78.19;99185.38;2264544;79;21145;-80
2020/12/15 02:01:46;;;;;;;58.47;26.20;;;;;;;0.66;78.22;99189.89;2264938;78;21407;-81
2020/12/15 02:04:48;;;;;;;59.27;27.27;;;;;;;0.68;78.13;99195.12;2264977;79;21125;-80
2020/12/15 02:07:49;;;;;;;42.10;23.90;;;;;;;0.69;78.17;99187.49;2265208;78;21113;-77
2020/12/15 02:10:50;;;;;;;58.07;22.77;;;;;;;0.61;78.12;99188.75;2264503;78;21117;-79
2020/12/15 02:13:51;;;;;;;38.20;19.87;;;;;;;0.58;78.10;99193.31;2263530;78;21121;-79
2020/12/15 02:16:53;;;;;;;48.97;23.70;;;;;;;0.51;78.12;99186.06;2261202;78;21074;-79
2020/12/15 02:19:54;;;;;;;48.30;23.67;;;;;;;0.47;78.18;99197.36;2261605;78;21125;-79
2020/12/15 02:22:55;;;;;;;54.90;24.70;;;;;;;0.48;78.16;99201.70;2261582;78;21426;-79
2020/12/15 02:25:56;;;;;;;57.30;25.40;;;;;;;0.47;78.23;99198.25;2261290;78;21148;-80
2020/12/15 02:28:57;;;;;;;53.00;24.47;;;;;;;0.45;78.25;99197.67;2261140;78;21129;-79
2020/12/15 02:31:58;;;;;;;40.70;21.77;;;;;;;0.42;78.30;99195.82;2260783;78;21161;-80
2020/12/15 02:34:59;;;;;;;49.33;24.40;;;;;;;0.43;78.40;99193.73;2260608;79;21137;-80
2020/12/15 02:38:00;;;;;;;47.37;21.53;;;;;;;0.45;78.40;99192.14;2260641;78;21133;-80
2020/12/15 02:41:01;;;;;;;45.87;21.07;;;;;;;0.45;78.33;99204.09;2261520;78;21141;-80
2020/12/15 02:44:02;;;;;;;45.27;22.83;;;;;;;0.41;78.34;99197.90;2261525;78;21134;-79
2020/12/15 02:47:04;;;;;;;36.83;20.43;;;;;;;0.33;78.32;99198.26;2261479;78;21157;-79
2020/12/15 02:50:05;;;;;;;46.30;22.13;;;;;;;0.29;78.43;99195.91;2261588;78;21419;-80
2020/12/15 02:53:06;;;;;;;47.47;23.57;;;;;;;0.28;78.48;99188.61;2261489;78;21137;-79
2020/12/15 02:56:10;;;;;;;50.77;20.43;;;;;;;0.28;78.54;99183.88;2261605;79;21129;-81
2020/12/15 02:59:11;;;;;;;56.80;20.33;;;;;;;0.28;78.61;99185.16;2261489;78;21125;-80
2020/12/15 03:02:12;;;;;;;41.73;20.60;;;;;;;0.25;78.67;99176.00;2261014;78;21137;-80
2020/12/15 03:05:13;;;;;;;44.47;20.57;;;;;;;0.25;78.61;99178.16;2260582;78;21137;-79
2020/12/15 03:08:14;;;;;;;40.97;21.50;;;;;;;0.23;78.64;99180.16;2260649;78;21220;-79
2020/12/15 03:11:15;;;;;;;35.53;17.20;;;;;;;0.20;78.60;99171.88;2260698;78;21429;-79
2020/12/15 03:14:16;;;;;;;31.43;17.63;;;;;;;0.22;78.56;99180.95;2262280;78;21149;-78
2020/12/15 03:17:17;;;;;;;32.17;19.13;;;;;;;0.18;78.49;99179.89;2264324;78;21113;-76
2020/12/15 03:20:19;;;;;;;35.57;18.97;;;;;;;0.18;78.54;99177.73;2264257;78;21129;-79
2020/12/15 03:23:20;;;;;;;35.53;19.63;;;;;;;0.19;78.59;99182.06;2264986;78;21419;-77
2020/12/15 03:26:23;;;;;;;34.10;17.87;;;;;;;0.17;78.51;99184.94;2265053;78;21125;-82
2020/12/15 03:29:24;;;;;;;24.87;15.17;;;;;;;0.17;78.57;99197.78;2265166;78;21255;-78
2020/12/15 03:32:25;;;;;;;23.87;14.37;;;;;;;0.14;78.49;99189.89;2264562;78;21172;-80
2020/12/15 03:35:27;;;;;;;28.33;16.80;;;;;;;0.12;78.56;99190.20;2264609;78;21117;-81
2020/12/15 03:38:28;;;;;;;29.40;15.00;;;;;;;0.06;78.58;99197.55;2265305;78;21117;-79
2020/12/15 03:41:32;;;;;;;32.53;16.70;;;;;;;0.04;78.62;99202.99;2265107;78;21403;-79
2020/12/15 03:44:33;;;;;;;29.80;17.90;;;;;;;0.01;78.70;99197.28;2265016;79;21395;-80
2020/12/15 03:47:36;;;;;;;30.77;18.30;;;;;;;0.08;78.73;99203.66;2265005;78;21105;-79
2020/12/15 03:50:37;;;;;;;34.00;17.57;;;;;;;0.09;78.61;99197.33;2264887;78;21145;-77
2020/12/15 03:53:39;;;;;;;33.93;17.97;;;;;;;0.07;78.71;99200.20;2264965;78;21089;-79
2020/12/15 03:56:40;;;;;;;35.73;19.60;;;;;;;0.05;78.79;99200.91;2265313;78;21121;-78
2020/12/15 03:59:41;;;;;;;34.20;20.17;;;;;;;0.08;78.78;99208.80;2265348;78;21117;-78
2020/12/15 04:02:42;;;;;;;34.53;18.87;;;;;;;0.13;78.79;99208.66;2264366;78;21156;-78
2020/12/15 04:05:43;;;;;;;34.07;18.40;;;;;;;0.17;78.71;99206.77;2264872;78;21438;-82
2020/12/15 04:08:44;;;;;;;29.87;16.70;;;;;;;0.19;78.68;99203.48;2264992;78;21118;-79
2020/12/15 04:11:46;;;;;;;32.87;18.03;;;;;;;0.20;78.57;99200.13;2265336;78;21177;-80
2020/12/15 04:14:46;;;;;;;41.07;20.50;;;;;;;0.22;78.65;99203.66;2262934;78;21149;-78
2020/12/15 04:17:48;;;;;;;30.57;17.47;;;;;;;0.17;78.43;99209.33;2261375;78;21121;-78
2020/12/15 04:20:51;;;;;;;41.27;18.53;;;;;;;0.12;78.46;99211.62;2261027;78;21133;-76
2020/12/15 04:23:52;;;;;;;37.67;21.20;;;;;;;0.11;78.54;99210.25;2260656;78;21137;-78
2020/12/15 04:26:53;;;;;;;30.23;19.07;;;;;;;0.06;78.61;99203.57;2260449;78;21125;-78
2020/12/15 04:29:55;;;;;;;27.57;15.87;;;;;;;0.07;78.65;99205.34;2260740;78;21149;-79
2020/12/15 04:32:56;;;;;;;43.67;20.83;;;;;;;0.06;78.70;99205.25;2260409;78;21187;-79
2020/12/15 04:35:57;;;;;;;36.57;19.37;;;;;;;0.01;78.80;99207.55;2259706;78;21402;-78
2020/12/15 04:38:58;;;;;;;43.33;21.40;;;;;;;0.03;78.90;99211.09;2259933;78;21498;-79
2020/12/15 04:41:59;;;;;;;42.47;21.00;;;;;;;0.09;78.91;99208.00;2259427;78;21129;-78
2020/12/15 04:45:00;;;;;;;37.03;21.33;;;;;;;0.09;78.79;99206.71;2259437;78;21129;-78
2020/12/15 04:48:01;;;;;;;43.63;23.10;;;;;;;0.12;78.94;99204.33;2258826;78;21129;-79
2020/12/15 04:51:02;;;;;;;40.60;21.77;;;;;;;0.18;78.98;99197.86;2257930;78;21160;-80
2020/12/15 04:54:04;;;;;;;48.33;25.17;;;;;;;0.24;78.68;99187.06;2257007;78;21763;-76
2020/12/15 04:57:05;;;;;;;46.53;24.97;;;;;;;0.27;78.57;99182.10;2257255;78;21255;-76
2020/12/15 05:00:06;;;;;;;44.23;24.80;;;;;;;0.27;78.43;99178.25;2256838;78;21125;-73
2020/12/15 05:03:07;;;;;;;34.70;17.97;;;;;;;0.21;78.34;99180.07;2257592;78;21117;-78
2020/12/15 05:06:08;;;;;;;45.47;24.20;;;;;;;0.17;78.40;99176.84;2256944;78;21251;-78
2020/12/15 05:09:09;;;;;;;45.83;23.93;;;;;;;0.13;78.57;99180.03;2258038;79;21220;-79
2020/12/15 05:12:13;;;;;;;43.05;21.60;;;;;;;0.37;79.91;99185.69;2258912;78;21153;-78
2020/12/15 05:15:14;;;;;;;50.47;23.70;;;;;;;0.43;78.20;99184.75;2258173;78;21227;-79
2020/12/15 05:18:15;;;;;;;44.07;23.97;;;;;;;0.28;78.19;99188.61;2258392;78;21118;-79
2020/12/15 05:21:16;;;;;;;42.63;23.07;;;;;;;0.23;78.22;99182.33;2258423;78;21125;-79
2020/12/15 05:24:17;;;;;;;52.47;25.70;;;;;;;0.22;78.30;99197.64;2257668;78;21089;-78
2020/12/15 05:27:29;;;;;;;52.97;27.43;;;;;;;0.24;78.46;99201.19;2257674;78;21121;-78
2020/12/15 05:30:21;;;;;;;49.13;24.87;;;;;;;0.29;78.55;99195.91;2255744;79;21267;-78
2020/12/15 05:33:22;;;;;;;49.00;24.83;;;;;;;0.30;78.44;99197.28;2258216;78;21227;-79
2020/12/15 05:36:24;;;;;;;46.80;23.67;;;;;;;0.31;78.34;99199.45;2257689;78;21679;-79
2020/12/15 05:39:25;;;;;;;53.93;25.03;;;;;;;0.30;78.18;99201.53;2258598;78;21137;-77
2020/12/15 05:42:26;;;;;;;45.80;23.70;;;;;;;0.25;78.20;99202.95;2258475;78;21173;-79
2020/12/15 05:45:27;;;;;;;49.47;23.43;;;;;;;0.20;78.31;99203.09;2258215;78;21200;-81
2020/12/15 05:48:28;;;;;;;38.27;21.70;;;;;;;0.11;78.30;99204.72;2258578;78;21381;-80
2020/12/15 05:51:29;;;;;;;56.13;27.40;;;;;;;0.07;78.44;99203.17;2257658;78;21279;-78
2020/12/15 05:54:30;;;;;;;48.13;24.10;;;;;;;0.22;78.45;99207.91;2258049;78;21434;-78
2020/12/15 05:57:31;;;;;;;42.13;19.40;;;;;;;0.11;78.28;99205.12;2257216;78;21108;-79
2020/12/15 06:00:32;;;;;;;53.33;26.67;;;;;;;0.62;78.78;99200.80;2257452;78;21284;-78
2020/12/15 06:03:33;;;;;;;52.77;25.00;;;;;;;0.47;78.05;99205.95;2258363;79;21256;-79
2020/12/15 06:06:34;;;;;;;54.97;28.03;;;;;;;0.61;78.76;99215.72;2258076;78;21295;-78
2020/12/15 06:09:35;;;;;;;57.47;27.33;;;;;;;0.58;77.97;99216.84;2257576;78;21186;-76
2020/12/15 06:12:37;;;;;;;55.27;26.23;;;;;;;0.50;77.91;99219.37;2257669;78;21311;-76
2020/12/15 06:15:38;;;;;;;57.73;26.93;;;;;;;0.44;77.96;99210.91;2257929;78;21299;-78
2020/12/15 06:18:39;;;;;;;57.60;28.00;;;;;;;0.41;77.96;99211.14;2257569;78;21857;-77
2020/12/15 06:21:40;;;;;;;43.87;23.17;;;;;;;0.40;78.03;99208.97;2258089;78;21097;-77
2020/12/15 06:24:41;;;;;;;47.07;23.53;;;;;;;0.42;77.97;99210.34;2256950;78;21450;-79
2020/12/15 06:27:42;;;;;;;64.53;25.10;;;;;;;0.34;77.80;99211.19;2257111;78;21113;-78
2020/12/15 06:30:43;;;;;;;49.60;26.23;;;;;;;0.26;78.01;99213.71;2258004;78;21160;-76
2020/12/15 06:33:44;;;;;;;56.63;26.90;;;;;;;0.18;78.10;99211.98;2257494;78;21783;-78
2020/12/15 06:36:45;;;;;;;54.70;28.53;;;;;;;0.23;78.32;99208.41;2257921;78;21074;-77
2020/12/15 06:39:46;;;;;;;48.17;25.60;;;;;;;0.24;78.18;99205.03;2257536;78;21114;-78
2020/12/15 06:42:47;;;;;;;51.40;25.73;;;;;;;0.20;78.23;99207.83;2257399;78;21236;-77
2020/12/15 06:45:48;;;;;;;46.00;25.53;;;;;;;0.19;78.26;99206.05;2258485;78;21133;-77
2020/12/15 06:48:49;;;;;;;51.77;26.37;;;;;;;0.24;78.32;99210.17;2258594;78;21129;-78
2020/12/15 06:51:50;;;;;;;53.60;26.73;;;;;;;0.34;78.34;99212.87;2258630;78;21263;-78
2020/12/15 06:54:51;;;;;;;53.53;29.70;;;;;;;0.38;78.20;99208.00;2258390;78;21116;-78
2020/12/15 06:57:52;;;;;;;55.43;29.03;;;;;;;0.43;78.19;99219.42;2257610;78;21869;-78
2020/12/15 07:00:53;;;;;;;62.37;29.17;;;;;;;0.50;78.13;99220.66;2257141;78;21082;-77
2020/12/15 07:03:54;;;;;;;57.00;29.17;;;;;;;0.51;78.03;99219.86;2257051;78;21093;-77
2020/12/15 07:06:56;;;;;;;74.37;31.17;;;;;;;0.51;78.00;99210.47;2257532;78;21271;-78
2020/12/15 07:09:57;;;;;;;68.00;32.33;;;;;;;0.53;78.05;99213.12;2258031;78;21235;-79
2020/12/15 07:12:59;;;;;;;60.50;30.10;;;;;;;0.57;78.07;99209.53;2257612;78;21172;-77
2020/12/15 07:16:00;;;;;;;64.23;32.63;;;;;;;0.59;78.04;99210.90;2259293;78;21617;-79
2020/12/15 07:19:01;;;;;;;58.93;31.30;;;;;;;0.57;78.12;99205.67;2261738;78;21252;-77
2020/12/15 07:22:02;;;;;;;64.30;31.70;;;;;;;0.61;78.12;99210.19;2261712;78;21594;-77
2020/12/15 07:25:03;;;;;;;74.93;35.30;;;;;;;0.65;78.18;99217.66;2262327;78;21117;-78
2020/12/15 07:28:04;;;;;;;59.47;29.87;;;;;;;0.66;78.19;99210.84;2261843;78;21105;-76
2020/12/15 07:31:05;;;;;;;59.87;30.03;;;;;;;0.68;78.21;99207.56;2261067;78;21294;-77
2020/12/15 07:34:06;;;;;;;65.37;31.27;;;;;;;0.66;78.09;99209.16;2261712;78;21102;-78
2020/12/15 07:37:07;;;;;;;58.87;30.53;;;;;;;0.66;78.17;99216.87;2261286;78;21289;-77
2020/12/15 07:40:09;;;;;;;74.17;36.40;;;;;;;0.64;78.13;99218.06;2261590;78;21098;-77
2020/12/15 07:43:10;;;;;;;57.43;28.63;;;;;;;0.63;78.31;99221.44;2261505;79;21269;-76
2020/12/15 07:46:11;;;;;;;60.07;29.57;;;;;;;0.68;78.39;99223.37;2261412;78;21133;-77
2020/12/15 07:49:12;;;;;;;47.97;23.73;;;;;;;0.70;78.42;99219.21;2261209;78;21094;-77
2020/12/15 07:52:13;;;;;;;53.47;27.90;;;;;;;0.75;78.41;99212.64;2262378;79;21177;-77
2020/12/15 07:55:14;;;;;;;58.60;29.23;;;;;;;0.76;78.36;99202.85;2261839;78;21263;-77
2020/12/15 07:58:16;;;;;;;48.43;25.17;;;;;;;0.79;78.45;99198.77;2262034;78;21518;-78
2020/12/15 08:01:17;;;;;;;58.63;29.50;;;;;;;0.80;78.25;99195.80;2261484;78;21247;-77
2020/12/15 08:04:18;;;;;;;60.63;28.90;;;;;;;0.84;78.34;99208.91;2261392;78;21236;-76
2020/12/15 08:07:19;;;;;;;47.83;26.43;;;;;;;0.99;78.34;99210.58;2261634;78;21259;-78
2020/12/15 08:10:20;;;;;;;52.77;27.53;;;;;;;1.07;78.17;99214.06;2261570;78;21212;-77
2020/12/15 08:13:21;;;;;;;61.37;31.33;;;;;;;1.07;78.14;99215.34;2260255;78;21109;-78
2020/12/15 08:16:22;;;;;;;62.77;29.20;;;;;;;1.17;78.40;99214.16;2261552;78;21137;-78
2020/12/15 08:19:23;;;;;;;41.90;21.70;;;;;;;1.25;78.19;99214.17;2262093;78;21121;-79
2020/12/15 08:22:24;;;;;;;61.80;30.30;;;;;;;1.33;77.79;99214.19;2262297;78;21232;-80
2020/12/15 08:25:25;;;;;;;51.30;27.53;;;;;;;1.39;77.90;99220.05;2261732;78;21799;-78
2020/12/15 08:28:26;;;;;;;59.87;30.87;;;;;;;1.47;77.48;99221.35;2261395;78;21251;-78
2020/12/15 08:31:27;;;;;;;52.47;28.23;;;;;;;1.52;77.58;99224.65;2261555;78;21288;-79
2020/12/15 08:34:28;;;;;;;48.97;25.93;;;;;;;1.59;77.26;99233.58;2261272;78;21254;-81
2020/12/15 08:37:29;;;;;;;52.77;27.87;;;;;;;1.59;76.89;99238.72;2262198;78;21638;-78
2020/12/15 08:40:30;;;;;;;58.27;28.23;;;;;;;1.62;76.89;99236.72;2261245;78;21247;-76
2020/12/15 08:43:32;;;;;;;61.53;31.70;;;;;;;1.64;76.94;99235.99;2260300;78;21272;-76
2020/12/15 08:46:33;;;;;;;60.70;29.67;;;;;;;1.75;76.97;99242.62;2260750;78;21865;-76
2020/12/15 08:49:34;;;;;;;56.43;29.90;;;;;;;1.83;76.81;99232.73;2261485;78;21247;-76
2020/12/15 08:52:35;;;;;;;48.77;26.80;;;;;;;1.86;76.63;99237.63;2260563;78;21318;-78
2020/12/15 08:55:36;;;;;;;59.57;29.53;;;;;;;1.96;76.29;99239.39;2260011;78;21803;-77
2020/12/15 08:58:37;;;;;;;50.83;29.37;;;;;;;1.96;75.60;99227.41;2261060;78;21799;-77
2020/12/15 09:01:38;;;;;;;52.90;27.20;;;;;;;1.90;75.84;99234.81;2260462;78;21239;-77
2020/12/15 09:04:39;;;;;;;48.17;26.87;;;;;;;1.93;75.83;99230.23;2261066;78;21216;-77
2020/12/15 09:07:40;;;;;;;46.97;26.13;;;;;;;1.91;75.85;99228.45;2259987;78;21267;-77
2020/12/15 09:10:42;;;;;;;53.43;28.33;;;;;;;1.93;75.91;99228.54;2260659;79;21153;-77
2020/12/15 09:13:43;;;;;;;68.13;35.77;;;;;;;1.89;75.42;99235.22;2260002;78;21891;-75
2020/12/15 09:16:44;;;;;;;53.47;29.60;;;;;;;1.94;75.85;99230.70;2257410;79;21288;-76
2020/12/15 09:19:45;;;;;;;55.33;26.77;;;;;;;1.97;75.89;99237.30;2256923;78;21272;-76
2020/12/15 09:22:47;;;;;;;57.17;30.70;;;;;;;2.07;76.08;99238.26;2255982;78;21565;-76
2020/12/15 09:25:48;;;;;;;62.77;30.17;;;;;;;2.18;76.04;99228.98;2256520;78;21133;-77
2020/12/15 09:28:49;;;;;;;56.97;30.40;;;;;;;2.32;75.44;99216.80;2257258;79;21405;-76
2020/12/15 09:31:50;;;;;;;52.87;28.23;;;;;;;2.27;75.24;99213.11;2257148;78;21173;-76
2020/12/15 09:34:51;;;;;;;42.27;24.97;;;;;;;2.28;74.98;99211.42;2256601;78;21610;-77
2020/12/15 09:37:52;;;;;;;44.77;26.43;;;;;;;2.21;74.86;99212.40;2256683;78;21110;-77
2020/12/15 09:40:53;;;;;;;48.23;28.03;;;;;;;2.23;74.94;99208.20;2256916;78;21125;-76
2020/12/15 09:43:54;;;;;;;51.03;26.20;;;;;;;2.26;75.08;99210.45;2257198;79;21244;-77
2020/12/15 09:46:55;;;;;;;51.33;27.93;;;;;;;2.35;75.05;99208.34;2257957;78;21137;-77
2020/12/15 09:49:56;;;;;;;52.20;28.47;;;;;;;2.42;75.22;99207.83;2257571;78;21228;-77
2020/12/15 09:52:57;;;;;;;42.30;26.60;;;;;;;2.51;75.01;99202.73;2257256;78;21177;-77
2020/12/15 09:55:58;;;;;;;47.20;26.63;;;;;;;2.65;74.76;99196.11;2257823;79;21284;-76
2020/12/15 09:58:59;;;;;;;43.67;25.60;;;;;;;2.68;74.69;99198.83;2257980;78;21243;-76
2020/12/15 10:02:00;;;;;;;43.37;25.73;;;;;;;2.72;74.12;99195.19;2258179;79;21590;-76
2020/12/15 10:05:01;;;;;;;44.27;27.23;;;;;;;2.68;73.76;99198.42;2257783;78;21101;-76
2020/12/15 10:08:02;;;;;;;51.27;28.70;;;;;;;2.55;73.82;99196.03;2258765;78;21809;-77
2020/12/15 10:11:04;;;;;;;51.33;29.67;;;;;;;2.50;74.01;99190.66;2257475;78;21275;-76
2020/12/15 10:14:05;;;;;;;39.70;23.83;;;;;;;2.51;74.36;99183.41;2257462;78;21283;-76
2020/12/15 10:17:06;;;;;;;44.40;27.47;;;;;;;2.53;74.11;99177.92;2260570;78;21272;-77
2020/12/15 10:20:07;;;;;;;57.97;28.73;;;;;;;2.44;74.29;99183.03;2261720;78;21247;-77
2020/12/15 10:23:08;;;;;;;46.70;26.70;;;;;;;2.50;74.49;99189.36;2261957;79;21263;-77
2020/12/15 10:26:10;;;;;;;46.03;25.70;;;;;;;2.52;74.29;99184.28;2261988;78;21811;-76
2020/12/15 10:29:11;;;;;;;53.33;27.90;;;;;;;2.54;74.37;99180.97;2261855;78;21243;-76
2020/12/15 10:32:12;;;;;;;44.27;26.33;;;;;;;2.61;74.53;99181.30;2261159;78;21292;-76
2020/12/15 10:35:13;;;;;;;46.77;26.93;;;;;;;2.64;74.15;99182.33;2261839;78;21535;-77
2020/12/15 10:38:14;;;;;;;48.80;28.37;;;;;;;2.55;74.09;99177.99;2261900;78;21640;-76
2020/12/15 10:41:15;;;;;;;48.30;27.13;;;;;;;2.55;74.36;99173.72;2261703;78;21329;-77
2020/12/15 10:44:16;;;;;;;43.00;27.03;;;;;;;2.61;74.50;99174.45;2261710;78;21414;-78
2020/12/15 10:47:17;;;;;;;53.70;26.23;;;;;;;2.65;74.41;99171.63;2262342;78;21235;-77
2020/12/15 10:50:18;;;;;;;46.73;28.33;;;;;;;2.70;74.35;99177.47;2261902;78;21996;-78
2020/12/15 10:53:19;;;;;;;41.97;23.10;;;;;;;2.74;74.44;99179.80;2261042;78;21279;-76
2020/12/15 10:56:22;;;;;;;48.07;27.93;;;;;;;2.83;74.30;99173.78;2262008;78;21247;-77
2020/12/15 10:59:23;;;;;;;50.77;27.23;;;;;;;2.79;74.40;99178.31;2261782;78;21826;-76
2020/12/15 11:02:24;;;;;;;43.57;27.80;;;;;;;2.72;74.37;99174.56;2260822;78;21654;-75
2020/12/15 11:05:25;;;;;;;42.57;27.03;;;;;;;2.70;74.43;99170.14;2260306;78;21251;-78
2020/12/15 11:08:26;;;;;;;44.93;27.07;;;;;;;2.61;74.48;99160.28;2260833;78;21093;-77
2020/12/15 11:11:27;;;;;;;52.50;28.10;;;;;;;2.54;74.57;99170.66;2261938;78;21298;-77
2020/12/15 11:14:29;;;;;;;41.40;25.73;;;;;;;2.48;74.79;99163.05;2262153;78;21239;-76
2020/12/15 11:17:30;;;;;;;36.87;23.07;;;;;;;2.47;74.80;99167.72;2259198;78;21263;-79
2020/12/15 11:20:31;;;;;;;47.07;28.30;;;;;;;2.47;74.90;99166.02;2258189;78;21117;-76
2020/12/15 11:23:32;;;;;;;82.40;27.47;;;;;;;2.49;74.91;99159.25;2257970;78;21125;-77
2020/12/15 11:26:33;;;;;;;43.10;26.60;;;;;;;2.55;74.78;99156.97;2257574;78;21357;-78
2020/12/15 11:29:34;;;;;;;46.87;28.07;;;;;;;2.59;74.84;99155.42;2258407;78;21275;-77
2020/12/15 11:32:36;;;;;;;40.87;26.13;;;;;;;2.60;74.76;99150.78;2258580;78;21172;-77
2020/12/15 11:35:37;;;;;;;43.17;27.50;;;;;;;2.63;74.87;99153.50;2257401;78;21093;-78
2020/12/15 11:38:39;;;;;;;41.53;26.70;;;;;;;2.70;74.83;99158.55;2257184;78;21240;-77
2020/12/15 11:41:40;;;;;;;46.07;27.40;;;;;;;2.73;74.55;99156.11;2256196;78;21263;-78
2020/12/15 11:44:42;;;;;;;44.20;28.40;;;;;;;2.75;74.57;99154.49;2257430;78;21220;-76
2020/12/15 11:47:43;;;;;;;52.30;29.67;;;;;;;2.80;74.66;99149.15;2257721;79;21179;-80
2020/12/15 11:50:45;;;;;;;44.90;28.30;;;;;;;2.89;74.42;99144.42;2257499;78;21311;-78
2020/12/15 11:53:47;;;;;;;123.97;45.63;;;;;;;2.87;74.26;99142.17;2257420;78;21129;-79
2020/12/15 11:56:48;;;;;;;52.43;31.23;;;;;;;2.87;74.58;99145.64;2257569;78;21207;-77
2020/12/15 11:59:50;;;;;;;54.17;27.23;;;;;;;2.89;74.44;99147.00;2257757;78;21129;-78
2020/12/15 12:02:51;;;;;;;53.30;28.33;;;;;;;2.84;74.41;99142.92;2257910;78;21117;-78
2020/12/15 12:05:52;;;;;;;63.00;30.33;;;;;;;2.79;74.60;99142.22;2257734;78;21097;-78
2020/12/15 12:08:53;;;;;;;138.77;28.43;;;;;;;2.81;74.80;99144.06;2257481;78;21121;-78
2020/12/15 12:11:55;;;;;;;50.73;30.33;;;;;;;2.85;75.06;99138.64;2258038;79;21271;-77
2020/12/15 12:14:56;;;;;;;47.47;28.63;;;;;;;2.82;74.96;99130.77;2257245;78;21141;-74
2020/12/15 12:17:57;;;;;;;56.97;28.87;;;;;;;2.82;75.11;99124.33;2252861;78;21467;-75
2020/12/15 12:20:58;;;;;;;47.53;27.97;;;;;;;2.81;75.23;99122.15;2251381;78;21125;-78
2020/12/15 12:24:00;;;;;;;52.60;31.80;;;;;;;2.79;75.29;99122.89;2251439;78;21597;-79
2020/12/15 12:27:01;;;;;;;50.87;29.57;;;;;;;2.78;75.29;99120.72;2251635;78;21271;-78
2020/12/15 12:30:02;;;;;;;42.87;26.13;;;;;;;2.79;75.42;99121.20;2252014;78;21244;-80
2020/12/15 12:33:03;;;;;;;46.27;27.93;;;;;;;2.78;75.48;99113.39;2250996;78;21981;-80
2020/12/15 12:36:04;;;;;;;90.70;29.63;;;;;;;2.79;75.63;99119.02;2250637;78;21156;-78
2020/12/15 12:39:05;;;;;;;39.07;26.07;;;;;;;2.78;75.76;99115.97;2250956;78;21130;-78
2020/12/15 12:42:06;;;;;;;42.33;26.20;;;;;;;2.76;75.77;99110.73;2250295;78;21295;-76
2020/12/15 12:45:07;;;;;;;43.53;26.40;;;;;;;2.75;75.92;99111.55;2250468;78;21248;-77
2020/12/15 12:48:09;;;;;;;51.27;26.83;;;;;;;2.80;76.02;99115.23;2250861;78;21271;-77
2020/12/15 12:51:10;;;;;;;51.50;29.37;;;;;;;2.89;76.09;99109.61;2249953;78;21846;-76
2020/12/15 12:54:11;;;;;;;36.47;23.97;;;;;;;2.97;76.12;99104.40;2250070;78;21272;-78
2020/12/15 12:57:13;;;;;;;38.17;24.77;;;;;;;3.09;76.06;99101.49;2251108;78;21659;-77
2020/12/15 13:00:14;;;;;;;63.73;24.97;;;;;;;3.17;75.99;99097.16;2250984;78;21236;-75
2020/12/15 13:03:15;;;;;;;58.60;25.47;;;;;;;3.30;75.97;99097.70;2249416;78;21117;-76
2020/12/15 13:06:16;;;;;;;38.47;23.37;;;;;;;3.40;75.95;99094.70;2248794;78;21183;-77
2020/12/15 13:09:17;;;;;;;36.03;22.73;;;;;;;3.49;75.78;99096.02;2248279;78;21279;-78
2020/12/15 13:12:18;;;;;;;37.50;24.10;;;;;;;3.48;75.51;99096.84;2250179;78;21280;-76
2020/12/15 13:15:20;;;;;;;34.80;19.73;;;;;;;3.43;75.63;99101.30;2224329;79;21096;-78
2020/12/15 13:18:21;;;;;;;44.10;24.53;;;;;;;3.35;75.58;99089.75;2258467;78;21474;-74
2020/12/15 13:21:22;;;;;;;38.97;25.53;;;;;;;3.28;75.63;99090.30;2259761;78;21264;-76
2020/12/15 13:24:23;;;;;;;39.73;23.37;;;;;;;3.28;75.80;99096.75;2260007;78;21260;-77
2020/12/15 13:27:24;;;;;;;42.77;25.03;;;;;;;3.23;75.85;99097.84;2261476;78;21283;-77
2020/12/15 13:30:25;;;;;;;40.23;22.97;;;;;;;3.14;75.98;99100.89;2261321;78;21243;-77
2020/12/15 13:33:29;;;;;;;39.47;22.90;;;;;;;3.08;76.18;99094.57;2260658;78;21509;-76
2020/12/15 13:36:30;;;;;;;39.80;24.07;;;;;;;3.03;76.06;99093.48;2260295;79;21845;-76
2020/12/15 13:39:31;;;;;;;43.23;25.07;;;;;;;2.95;76.19;99099.98;2259898;78;21303;-76
2020/12/15 13:42:32;;;;;;;46.97;26.67;;;;;;;2.88;76.30;99093.67;2260606;78;21282;-78
2020/12/15 13:45:33;;;;;;;42.53;25.30;;;;;;;2.79;76.48;99099.28;2260596;78;21340;-77
2020/12/15 13:48:34;;;;;;;40.97;25.37;;;;;;;2.75;76.64;99095.20;2261918;79;21965;-78
2020/12/15 13:51:35;;;;;;;54.43;32.30;;;;;;;2.68;76.60;99101.77;2260903;78;21177;-78
2020/12/15 13:54:36;;;;;;;38.17;23.50;;;;;;;2.66;76.80;99096.06;2262609;79;21121;-78
2020/12/15 13:57:37;;;;;;;54.40;29.77;;;;;;;2.64;76.95;99088.67;2261992;78;21569;-77
2020/12/15 14:00:39;;;;;;;44.30;25.37;;;;;;;2.61;76.84;99096.25;2261864;78;21263;-77